• Join FlightAware (Why Join?)
  • Login
  • US Flag 
04:27PM EDT


 

Airport Tracker/Info


-or-


 

Live Flight TrackerFlight Track Log ✈ N329JB ✈ 20-Apr-2013 ✈ KDCA - KBOS

Flight Track Log - Related Links

Times and Time Zones

All times are in EDT time to prevent confusion due to time zone crossing. See the N329JB flight status page for this flight to view local times or setup timezone preferences in your user account.

Time Position Orientation Groundspeed Altitude Reporting Facility
EDT Latitude Longitude Course Direction KTS MPH feet Rate Location/Type
06:17AM 38.9000 -77.0667 74° East 149 171 2,300  Level Potomac TRACON
06:17AM 38.9333 -77.1167 311° West 190 219 4,600 2,520 Climbing Potomac TRACON
06:18AM 38.9853 -76.6443 67° East  Level FlightAware Approximate
06:18AM 38.9833 -77.1500 333° Northwest 241 277 7,100  Level Potomac TRACON
06:19AM 39.0333 -76.5102 62° Northeast  Level FlightAware Approximate
06:20AM 39.0876 -76.3798 62° Northeast  Level FlightAware Approximate
06:20AM 39.0333 -77.0500 57° Northeast 335 386 10,100  Level Potomac TRACON
06:20AM 39.0500 -76.9500 78° East 384 442 10,900 1,980 Climbing Potomac TRACON
06:21AM 39.1379 -76.2469 63° Northeast  Level FlightAware Approximate
06:22AM 39.2064 -76.1444 74° East  Level Estimated
06:22AM 39.0792 -76.6986 81° East 429 494 15,300  Level Washington Center
06:23AM 39.1347 -76.5575 63° Northeast 429 494 17,800 2,100 Climbing Washington Center
06:24AM 39.2086 -76.4192 55° Northeast 436 502 19,600 1,680 Climbing Washington Center
06:25AM 39.2867 -76.2700 56° Northeast 475 547 21,200 1,620 Climbing Washington Center
06:26AM 39.3728 -76.1178 54° Northeast 503 579 22,900 1,500 Climbing Washington Center
06:27AM 39.4547 -75.9597 56° Northeast 520 598 24,300 1,620 Climbing Washington Center
06:28AM 39.5383 -75.7986 56° Northeast 532 612 26,200 1,320 Climbing Washington Center
06:29AM 39.6239 -75.6347 56° Northeast 532 612 27,000 240 Climbing Washington Center
06:31AM 39.8061 -75.2836 56° Northeast 534 615 27,000  Level New York Center
06:32AM 39.8808 -75.1317 57° Northeast 534 615 27,000  Level New York Center
06:33AM 39.9617 -74.9742 56° Northeast 534 615 27,000  Level New York Center
06:34AM 40.0633 -74.8067 52° Northeast 533 613 27,000  Level New York Center
06:35AM 40.1472 -74.6622 53° Northeast 539 620 27,000  Level New York Center
06:36AM 40.2311 -74.5228 52° Northeast 539 620 27,000  Level New York Center
06:37AM 40.3322 -74.3514 52° Northeast 544 626 27,000  Level New York Center
06:38AM 40.4203 -74.1978 53° Northeast 539 620 27,000  Level New York Center
06:41AM 40.6497 -73.8106 52° Northeast 540 621 27,000 -60 Level Boston Center
06:42AM 40.7286 -73.6642 55° Northeast 535 616 26,900 -1,200 Descending Boston Center
06:43AM 40.8156 -73.5097 53° Northeast 535 616 24,700 -1,500 Descending Boston Center
06:44AM 40.9108 -73.3600 50° Northeast 535 616 24,000 -660 Descending Boston Center
06:45AM 41.0056 -73.2267 47° Northeast 515 593 23,400 -540 Descending Boston Center
06:46AM 41.1022 -73.0847 48° Northeast 510 587 23,000 -240 Descending Boston Center
06:47AM 41.1967 -72.9394 49° Northeast 510 587 23,000  Level Boston Center
06:48AM 41.2767 -72.7578 60° Northeast 515 593 23,000  Level Boston Center
06:49AM 41.3417 -72.5783 64° Northeast 505 581 23,000  Level Boston Center
06:50AM 41.4000 -72.4125 65° Northeast 487 560 23,000 -600 Level Boston Center
06:51AM 41.4644 -72.2378 64° Northeast 477 549 21,900 -1,440 Descending Boston Center
06:52AM 41.5225 -72.0742 65° Northeast 471 542 20,200 -1,620 Descending Boston Center
06:53AM 41.5781 -71.9211 64° Northeast 466 536 18,700 -1,560 Descending Boston Center
06:54AM 41.6253 -71.7847 65° Northeast 453 521 17,100 -1,380 Descending Boston Center
06:55AM 41.6786 -71.6342 65° Northeast 445 512 16,000 -1,440 Descending Boston Center
06:56AM 41.7458 -71.4411 65° Northeast 439 505 14,000 -1,500 Descending Boston Center
06:57AM 41.7903 -71.3125 65° Northeast 427 491 12,700 -1,440 Descending Boston Center
06:58AM 41.8431 -71.1583 65° Northeast 416 479 11,200 -900 Descending Boston Center
06:59AM 41.9000 -71.0333 59° Northeast 419 482 11,000 -120 Descending KA90
07:00AM 41.9500 -70.9000 63° Northeast 417 480 11,000 -120 Level KA90
07:01AM 42.0167 -70.7667 56° Northeast 416 479 10,800 -1,200 Descending KA90
07:02AM 42.0833 -70.6500 52° Northeast 410 472 8,600 -2,040 Descending KA90
07:03AM 42.1833 -70.6000 20° North 363 418 6,800 -1,680 Descending KA90
07:04AM 42.2833 -70.5833 North 325 374 5,300 -1,500 Descending KA90
07:05AM 42.3667 -70.5667 North 310 357 3,800 -1,200 Descending KA90
07:06AM 42.4167 -70.6000 334° Northwest 237 273 3,000 -480 Descending KA90
07:07AM 42.4119 -70.6853 266° West 176 203 2,900 -60 Descending Boston Center
07:08AM 42.4047 -70.7644 263° West 188 216 2,900 -300 Level Boston Center
07:09AM 42.3892 -70.8350 253° West 188 216 2,300 -780 Descending Boston Center
07:10AM 42.3833 -70.8833 261° West 161 185 1,500 -780 Descending KA90
07:11AM 42.3667 -70.9333 246° West 113 130 900 -600 Descending KA90
07:12AM 42.3667 -70.9667 270° West 113 130 300 -600 Descending KA90
07:14AM 42.3500 -71.0000 North  Level FlightAware Approximate